createdAt,value
2022-07-29T00:02:12.065Z,1.92
2022-07-29T00:04:42.524Z,1.95
2022-07-29T00:07:13.937Z,1.48
2022-07-29T00:09:51.845Z,1.30
2022-07-29T00:12:26.684Z,1.52
2022-07-29T00:14:58.605Z,2.40
2022-07-29T00:17:29.100Z,2.03
2022-07-29T00:19:59.497Z,1.35
2022-07-29T00:24:59.467Z,1.25
2022-07-29T00:30:00.132Z,1.20
2022-07-29T00:35:18.488Z,0.80
2022-07-29T00:37:49.126Z,0.30
2022-07-29T00:40:19.399Z,0.60
2022-07-29T00:42:54.902Z,0.68
2022-07-29T00:45:25.384Z,0.20
2022-07-29T00:47:56.213Z,0.35
2022-07-29T00:50:27.326Z,0.60
2022-07-29T00:52:57.976Z,0.40
2022-07-29T00:55:28.692Z,0.30
2022-07-29T00:58:00.825Z,0.40
2022-07-29T01:00:32.163Z,0.30
2022-07-29T01:03:03.165Z,0.32
2022-07-29T01:05:50.327Z,0.43
2022-07-29T01:08:22.939Z,0.90
2022-07-29T01:10:54.811Z,0.60
2022-07-29T01:13:25.595Z,0.90
2022-07-29T01:16:09.388Z,0.65
2022-07-29T01:18:46.910Z,0.80
2022-07-29T01:21:38.512Z,0.60
2022-07-29T01:24:33.204Z,0.25
2022-07-29T01:27:32.238Z,0.20
2022-07-29T01:30:05.573Z,0.10
2022-07-29T01:32:39.599Z,0.10
2022-07-29T01:35:41.117Z,0.20
2022-07-29T01:38:25.470Z,0.10
2022-07-29T01:41:22.088Z,0.10
2022-07-29T01:43:59.951Z,0.77
2022-07-29T01:46:44.071Z,0.20
2022-07-29T01:49:28.523Z,0.15
2022-07-29T01:52:13.821Z,0.22
2022-07-29T01:54:57.708Z,0.22
2022-07-29T01:57:34.441Z,0.20
2022-07-29T02:02:43.927Z,0.20
2022-07-29T02:05:17.348Z,0.10
2022-07-29T02:07:50.367Z,0.00
2022-07-29T02:10:26.364Z,0.10
2022-07-29T02:12:59.886Z,0.00
2022-07-29T02:15:33.287Z,0.00
2022-07-29T02:18:18.510Z,0.20
2022-07-29T02:20:52.019Z,0.10
2022-07-29T02:23:24.526Z,0.10
2022-07-29T02:26:00.332Z,0.20
2022-07-29T02:28:32.837Z,0.20
2022-07-29T02:31:06.167Z,0.10
2022-07-29T02:33:38.713Z,0.00
2022-07-29T02:36:09.638Z,0.28
2022-07-29T02:38:52.934Z,0.25
2022-07-29T02:41:38.148Z,0.17
2022-07-29T02:44:18.542Z,0.13
2022-07-29T02:47:04.025Z,0.00
2022-07-29T02:49:54.797Z,0.10
2022-07-29T02:52:30.276Z,0.00
2022-07-29T02:55:21.715Z,0.10
2022-07-29T02:58:05.330Z,0.10
2022-07-29T03:00:40.240Z,0.10
2022-07-29T03:03:17.736Z,0.20
2022-07-29T03:05:48.179Z,0.08
2022-07-29T03:10:50.116Z,0.30
2022-07-29T03:13:21.286Z,0.40
2022-07-29T03:15:52.568Z,0.20
2022-07-29T03:18:23.284Z,0.45
2022-07-29T03:20:53.813Z,0.57
2022-07-29T03:25:55.936Z,0.38
2022-07-29T03:28:29.513Z,0.15
2022-07-29T03:31:00.023Z,0.40
2022-07-29T03:33:32.547Z,0.10
2022-07-29T03:36:05.183Z,0.30
2022-07-29T03:38:38.212Z,0.28
2022-07-29T03:41:12.503Z,0.10
2022-07-29T03:43:49.310Z,0.28
2022-07-29T03:46:23.592Z,0.45
2022-07-29T03:48:58.685Z,0.20
2022-07-29T03:51:33.656Z,0.10
2022-07-29T03:54:14.115Z,0.10
2022-07-29T03:56:50.812Z,0.28
2022-07-29T03:59:23.000Z,0.10
2022-07-29T04:01:54.157Z,0.10
2022-07-29T04:04:25.114Z,0.17
2022-07-29T04:06:57.720Z,0.20
2022-07-29T04:09:28.151Z,0.10
2022-07-29T04:12:03.346Z,0.17
2022-07-29T04:14:35.557Z,0.20
2022-07-29T04:17:07.784Z,0.10
2022-07-29T04:19:38.561Z,0.13
2022-07-29T04:22:09.044Z,0.30
2022-07-29T04:24:42.858Z,0.20
2022-07-29T04:27:14.737Z,0.32
2022-07-29T04:29:56.820Z,0.30
2022-07-29T04:32:28.950Z,0.40
2022-07-29T04:34:59.288Z,0.28
2022-07-29T04:37:30.047Z,0.25
2022-07-29T04:40:00.507Z,0.20
2022-07-29T04:45:01.594Z,0.20
2022-07-29T04:47:32.022Z,0.20
2022-07-29T04:50:02.567Z,0.20
2022-07-29T04:52:33.029Z,0.17
2022-07-29T04:55:03.763Z,0.20
2022-07-29T04:57:34.108Z,0.40
2022-07-29T05:02:34.610Z,0.10
2022-07-29T05:05:05.086Z,0.08
2022-07-29T05:07:35.786Z,0.15
2022-07-29T05:10:06.585Z,0.03
2022-07-29T05:12:36.931Z,0.22
2022-07-29T05:15:07.630Z,0.10
2022-07-29T05:17:38.089Z,0.20
2022-07-29T05:20:09.602Z,0.22
2022-07-29T05:22:40.141Z,0.13
2022-07-29T05:25:11.900Z,0.10
2022-07-29T05:27:42.405Z,0.08
2022-07-29T05:30:31.300Z,0.40
2022-07-29T05:33:01.877Z,0.10
2022-07-29T05:38:02.163Z,0.30
2022-07-29T05:40:32.558Z,0.10
2022-07-29T05:43:02.970Z,0.20
2022-07-29T05:45:33.519Z,0.20
2022-07-29T05:48:19.582Z,0.40
2022-07-29T05:50:49.957Z,0.25
2022-07-29T05:53:20.839Z,0.10
2022-07-29T05:55:54.649Z,0.20
2022-07-29T05:58:25.489Z,0.57
2022-07-29T06:00:56.179Z,0.30
2022-07-29T06:05:56.291Z,0.10
2022-07-29T06:08:26.634Z,0.22
2022-07-29T06:10:57.077Z,0.40
2022-07-29T06:13:27.438Z,0.17
2022-07-29T06:15:58.042Z,0.30
2022-07-29T06:18:29.707Z,0.20
2022-07-29T06:23:29.983Z,0.10
2022-07-29T06:28:30.728Z,0.20
2022-07-29T06:31:01.870Z,0.25
2022-07-29T06:33:32.391Z,0.50
2022-07-29T06:36:02.509Z,0.28
2022-07-29T06:38:34.411Z,0.30
2022-07-29T06:41:14.895Z,0.22
2022-07-29T06:43:52.417Z,0.43
2022-07-29T06:46:25.767Z,0.40
2022-07-29T06:51:26.462Z,0.52
2022-07-29T06:53:58.159Z,0.32
2022-07-29T06:56:39.326Z,0.20
2022-07-29T06:59:11.707Z,0.45
2022-07-29T07:01:45.205Z,0.08
2022-07-29T07:04:15.782Z,0.20
2022-07-29T07:06:47.435Z,0.40
2022-07-29T07:09:17.832Z,0.10
2022-07-29T07:11:49.491Z,0.40
2022-07-29T07:14:21.059Z,0.10
2022-07-29T07:16:52.706Z,0.10
2022-07-29T07:19:25.357Z,0.10
2022-07-29T07:21:58.487Z,0.98
2022-07-29T07:24:28.919Z,0.20
2022-07-29T07:26:59.670Z,0.30
2022-07-29T07:29:30.175Z,0.13
2022-07-29T07:32:01.280Z,0.20
2022-07-29T07:34:32.475Z,0.25
2022-07-29T07:37:02.875Z,0.30
2022-07-29T07:39:33.751Z,0.20
2022-07-29T07:42:04.473Z,0.20
2022-07-29T07:44:51.359Z,0.57
2022-07-29T07:47:28.051Z,0.20
2022-07-29T07:49:59.131Z,0.35
2022-07-29T07:52:29.552Z,0.30
2022-07-29T07:54:59.925Z,0.25
2022-07-29T07:57:30.510Z,0.10
2022-07-29T08:00:00.839Z,0.13
2022-07-29T08:02:31.386Z,0.20
2022-07-29T08:07:32.408Z,0.20
2022-07-29T08:10:03.003Z,0.30
2022-07-29T08:12:33.293Z,0.38
2022-07-29T08:15:03.768Z,0.17
2022-07-29T08:17:35.428Z,0.73
2022-07-29T08:20:06.791Z,0.10
2022-07-29T08:22:36.968Z,0.30
2022-07-29T08:25:07.827Z,0.40
2022-07-29T08:27:43.890Z,0.45
2022-07-29T08:30:14.817Z,0.30
2022-07-29T08:32:54.078Z,0.40
2022-07-29T08:35:26.240Z,0.40
2022-07-29T08:37:58.972Z,0.40
2022-07-29T08:40:32.324Z,0.25
2022-07-29T08:43:09.231Z,0.35
2022-07-29T08:45:48.498Z,0.30
2022-07-29T08:48:24.774Z,0.52
2022-07-29T08:50:59.349Z,0.15
2022-07-29T08:53:30.835Z,0.38
2022-07-29T08:56:01.983Z,0.40
2022-07-29T08:58:36.550Z,0.30
2022-07-29T09:01:10.811Z,0.30
2022-07-29T09:03:44.112Z,0.40
2022-07-29T09:06:20.105Z,0.32
2022-07-29T09:08:50.979Z,0.40
2022-07-29T09:11:21.799Z,0.25
2022-07-29T09:13:52.149Z,0.30
2022-07-29T09:16:43.790Z,0.40
2022-07-29T09:19:26.718Z,0.35
2022-07-29T09:22:03.328Z,0.55
2022-07-29T09:24:44.424Z,0.52
2022-07-29T09:27:22.580Z,0.20
2022-07-29T09:30:12.794Z,0.40
2022-07-29T09:33:06.682Z,0.30
2022-07-29T09:35:37.217Z,0.40
2022-07-29T09:38:17.086Z,0.50
2022-07-29T09:41:05.927Z,0.55
2022-07-29T09:43:37.916Z,0.50
2022-07-29T09:46:17.594Z,0.40
2022-07-29T09:49:08.141Z,0.40
2022-07-29T09:51:39.941Z,0.52
2022-07-29T09:54:27.827Z,0.60
2022-07-29T09:56:58.527Z,0.45
2022-07-29T09:59:30.477Z,0.40
2022-07-29T10:02:01.106Z,0.32
2022-07-29T10:07:15.162Z,0.40
2022-07-29T10:09:57.077Z,0.40
2022-07-29T10:12:27.619Z,1.20
2022-07-29T10:14:58.374Z,0.20
2022-07-29T10:17:28.861Z,0.50
2022-07-29T10:19:59.750Z,0.50
2022-07-29T10:22:51.866Z,0.40
2022-07-29T10:25:21.481Z,0.57
2022-07-29T10:27:57.110Z,0.47
2022-07-29T10:30:28.770Z,0.32
2022-07-29T10:33:23.374Z,0.35
2022-07-29T10:36:18.797Z,0.50
2022-07-29T10:39:07.890Z,0.40
2022-07-29T10:42:09.366Z,0.70
2022-07-29T10:44:43.224Z,0.30
2022-07-29T10:47:25.340Z,0.50
2022-07-29T10:50:07.449Z,0.28
2022-07-29T10:53:08.730Z,0.55
2022-07-29T10:58:37.245Z,0.45
2022-07-29T11:01:37.606Z,0.68
2022-07-29T11:04:10.042Z,0.57
2022-07-29T11:07:05.611Z,0.90
2022-07-29T11:09:38.452Z,0.50
2022-07-29T11:12:40.494Z,0.40
2022-07-29T11:15:28.466Z,0.68
2022-07-29T11:18:01.224Z,0.45
2022-07-29T11:20:47.775Z,0.30
2022-07-29T11:23:44.375Z,0.40
2022-07-29T11:26:19.430Z,0.30
2022-07-29T11:28:58.718Z,0.55
2022-07-29T11:31:45.207Z,0.40
2022-07-29T11:34:35.154Z,0.55
2022-07-29T11:37:17.739Z,0.50
2022-07-29T11:40:02.358Z,0.65
2022-07-29T11:42:41.761Z,0.45
2022-07-29T11:45:42.497Z,0.60
2022-07-29T11:48:29.686Z,0.50
2022-07-29T11:50:59.968Z,0.98
2022-07-29T11:53:32.834Z,0.90
2022-07-29T11:56:03.982Z,0.80
2022-07-29T11:58:34.970Z,0.75
2022-07-29T12:01:08.569Z,0.80
2022-07-29T12:03:39.387Z,1.02
2022-07-29T12:06:18.607Z,0.50
2022-07-29T12:08:51.609Z,0.45
2022-07-29T12:11:23.385Z,0.35
2022-07-29T12:13:55.262Z,0.80
2022-07-29T12:16:29.511Z,0.65
2022-07-29T12:19:05.196Z,0.60
2022-07-29T12:21:56.256Z,0.55
2022-07-29T12:24:27.690Z,0.35
2022-07-29T12:29:33.760Z,0.50
2022-07-29T12:32:15.093Z,0.40
2022-07-29T12:34:50.688Z,0.30
2022-07-29T12:37:40.524Z,0.32
2022-07-29T12:40:20.314Z,0.30
2022-07-29T12:43:14.722Z,0.20
2022-07-29T12:45:52.203Z,0.30
2022-07-29T12:48:45.642Z,0.22
2022-07-29T12:51:17.558Z,0.20
2022-07-29T12:54:09.896Z,0.22
2022-07-29T12:56:43.700Z,0.32
2022-07-29T12:59:23.503Z,0.20
2022-07-29T13:01:55.545Z,0.45
2022-07-29T13:04:32.223Z,0.82
2022-07-29T13:07:10.319Z,0.50
2022-07-29T13:09:47.664Z,0.30
2022-07-29T13:12:18.394Z,0.70
2022-07-29T13:14:51.007Z,0.10
2022-07-29T13:17:25.413Z,0.32
2022-07-29T13:20:08.679Z,0.40
2022-07-29T13:22:39.493Z,0.30
2022-07-29T13:25:10.974Z,0.20
2022-07-29T13:27:42.918Z,0.43
2022-07-29T13:30:13.754Z,0.25
2022-07-29T13:32:44.159Z,0.30
2022-07-29T13:35:15.540Z,0.10
2022-07-29T13:37:46.096Z,0.40
2022-07-29T13:42:46.778Z,0.17
2022-07-29T13:45:17.357Z,0.30
2022-07-29T13:47:49.583Z,0.38
2022-07-29T13:50:19.937Z,0.38
2022-07-29T13:52:51.223Z,0.30
2022-07-29T13:55:21.874Z,0.10
2022-07-29T14:00:21.863Z,0.30
2022-07-29T14:02:52.512Z,0.10
2022-07-29T14:05:22.933Z,0.15
2022-07-29T14:07:53.292Z,0.32
2022-07-29T14:10:23.780Z,0.35
2022-07-29T14:12:54.068Z,0.22
2022-07-29T14:15:25.504Z,0.60
2022-07-29T14:17:55.965Z,0.75
2022-07-29T14:20:26.458Z,0.60
2022-07-29T14:22:56.826Z,0.22
2022-07-29T14:25:27.236Z,0.40
2022-07-29T14:27:58.557Z,0.38
2022-07-29T14:30:29.413Z,0.50
2022-07-29T14:32:59.866Z,0.10
2022-07-29T14:35:30.316Z,0.20
2022-07-29T14:38:00.792Z,0.10
2022-07-29T14:40:31.368Z,0.10
2022-07-29T14:45:31.572Z,0.50
2022-07-29T14:50:34.847Z,0.10
2022-07-29T14:53:05.969Z,0.30
2022-07-29T14:55:36.584Z,0.30
2022-07-29T15:00:44.960Z,0.40
2022-07-29T15:03:23.017Z,1.70
2022-07-29T15:05:54.813Z,0.60
2022-07-29T15:10:59.684Z,0.63
2022-07-29T15:13:30.201Z,0.25
2022-07-29T15:18:30.921Z,0.80
2022-07-29T15:21:04.538Z,1.08
2022-07-29T15:23:37.632Z,1.10
2022-07-29T15:26:08.025Z,0.93
2022-07-29T15:28:38.667Z,0.98
2022-07-29T15:33:38.706Z,0.32
2022-07-29T15:36:17.884Z,0.30
2022-07-29T15:39:07.068Z,0.70
2022-07-29T15:41:43.096Z,0.20
2022-07-29T15:44:14.897Z,0.30
2022-07-29T15:47:05.693Z,0.50
2022-07-29T15:49:48.757Z,0.80
2022-07-29T15:52:25.684Z,0.13
2022-07-29T15:57:28.667Z,0.15
2022-07-29T15:59:59.107Z,0.20
2022-07-29T16:02:29.541Z,0.13
2022-07-29T16:05:00.161Z,0.40
2022-07-29T16:07:31.400Z,0.20
2022-07-29T16:10:03.602Z,0.20
2022-07-29T16:12:34.010Z,0.40
2022-07-29T16:15:09.413Z,0.28
2022-07-29T16:17:41.103Z,0.20
2022-07-29T16:20:13.808Z,0.43
2022-07-29T16:22:45.153Z,0.20
2022-07-29T16:25:15.755Z,0.30
2022-07-29T16:30:15.967Z,0.25
2022-07-29T16:32:46.266Z,0.20
2022-07-29T16:35:16.918Z,0.20
2022-07-29T16:37:47.249Z,0.52
2022-07-29T16:40:17.749Z,0.40
2022-07-29T16:45:21.166Z,0.55
2022-07-29T16:47:51.969Z,0.10
2022-07-29T16:50:23.189Z,0.30
2022-07-29T16:55:24.755Z,0.70
2022-07-29T16:57:55.233Z,0.35
2022-07-29T17:00:25.997Z,0.10
2022-07-29T17:02:56.415Z,0.57
2022-07-29T17:05:26.967Z,0.20
2022-07-29T17:10:31.175Z,0.60
2022-07-29T17:13:01.499Z,0.15
2022-07-29T17:15:32.028Z,0.10
2022-07-29T17:18:12.863Z,0.25
2022-07-29T17:20:44.023Z,0.30
2022-07-29T17:23:14.503Z,0.22
2022-07-29T17:28:15.646Z,0.30
2022-07-29T17:30:46.605Z,0.20
2022-07-29T17:33:16.852Z,0.52
2022-07-29T17:38:35.218Z,0.55
2022-07-29T17:41:08.711Z,0.20
2022-07-29T17:43:40.560Z,0.30
2022-07-29T17:46:11.351Z,0.17
2022-07-29T17:48:42.356Z,0.03
2022-07-29T17:51:13.466Z,0.30
2022-07-29T17:53:44.061Z,0.70
2022-07-29T17:58:48.563Z,0.40
2022-07-29T18:01:19.809Z,0.30
2022-07-29T18:03:53.224Z,0.25
2022-07-29T18:06:25.013Z,0.20
2022-07-29T18:08:55.698Z,0.30
2022-07-29T18:11:26.377Z,0.20
2022-07-29T18:13:56.973Z,0.30
2022-07-29T18:18:58.311Z,0.10
2022-07-29T18:21:45.973Z,0.20
2022-07-29T18:24:22.174Z,0.10
2022-07-29T18:29:22.926Z,0.10
2022-07-29T18:31:53.730Z,0.20
2022-07-29T18:34:24.135Z,0.28
2022-07-29T18:36:54.859Z,0.30
2022-07-29T18:39:25.457Z,0.20
2022-07-29T18:44:25.972Z,0.38
2022-07-29T18:46:57.782Z,0.20
2022-07-29T18:49:29.053Z,0.22
2022-07-29T18:51:59.579Z,0.30
2022-07-29T18:54:31.986Z,0.38
2022-07-29T18:57:54.211Z,0.32
2022-07-29T18:59:55.483Z,0.10
2022-07-29T19:02:26.204Z,0.28
2022-07-29T19:04:57.954Z,0.20
2022-07-29T19:07:34.672Z,0.20
2022-07-29T19:10:05.945Z,0.43
2022-07-29T19:12:42.503Z,0.20
2022-07-29T19:15:20.007Z,0.20
2022-07-29T19:18:00.848Z,0.30
2022-07-29T19:20:32.456Z,0.30
2022-07-29T19:23:05.457Z,0.15
2022-07-29T19:25:37.058Z,0.28
2022-07-29T19:28:24.515Z,0.55
2022-07-29T19:30:57.973Z,0.30
2022-07-29T19:33:29.500Z,0.40
2022-07-29T19:36:02.212Z,0.30
2022-07-29T19:38:33.207Z,0.40
2022-07-29T19:43:51.560Z,0.20
2022-07-29T19:46:24.510Z,0.40
2022-07-29T19:48:55.083Z,0.40
2022-07-29T19:53:55.932Z,0.28
2022-07-29T19:56:28.476Z,0.30
2022-07-29T19:58:59.753Z,0.32
2022-07-29T20:01:33.981Z,0.28
2022-07-29T20:04:04.568Z,0.55
2022-07-29T20:06:35.212Z,0.40
2022-07-29T20:09:07.320Z,0.40
2022-07-29T20:11:38.819Z,0.35
2022-07-29T20:14:09.318Z,0.20
2022-07-29T20:16:39.833Z,0.28
2022-07-29T20:19:10.693Z,0.20
2022-07-29T20:21:41.431Z,0.30
2022-07-29T20:24:11.979Z,0.38
2022-07-29T20:29:12.360Z,0.30
2022-07-29T20:31:44.611Z,0.32
2022-07-29T20:34:22.170Z,0.68
2022-07-29T20:36:52.555Z,0.50
2022-07-29T20:41:56.112Z,0.47
2022-07-29T20:46:56.705Z,0.55
2022-07-29T20:49:27.407Z,0.20
2022-07-29T20:51:57.964Z,0.70
2022-07-29T20:54:28.441Z,0.63
2022-07-29T20:56:59.213Z,0.40
2022-07-29T20:59:30.432Z,0.70
2022-07-29T21:02:00.930Z,0.60
2022-07-29T21:04:32.745Z,0.70
2022-07-29T21:07:03.584Z,0.40
2022-07-29T21:09:34.236Z,0.43
2022-07-29T21:12:04.695Z,0.57
2022-07-29T21:17:09.101Z,0.75
2022-07-29T21:19:39.621Z,0.35
2022-07-29T21:22:10.315Z,0.50
2022-07-29T21:24:40.910Z,0.40
2022-07-29T21:32:30.787Z,0.40
2022-07-29T21:37:31.418Z,0.50
2022-07-29T21:40:01.948Z,0.30
2022-07-29T21:45:02.309Z,0.43
2022-07-29T21:47:32.856Z,0.30
2022-07-29T21:52:32.936Z,0.40
2022-07-29T21:57:33.569Z,0.40
2022-07-29T22:02:42.084Z,0.40
2022-07-29T22:05:13.726Z,0.40
2022-07-29T22:07:55.729Z,0.80
2022-07-29T22:10:31.778Z,1.08
2022-07-29T22:13:04.543Z,1.00
2022-07-29T22:15:35.208Z,1.08
2022-07-29T22:20:35.656Z,0.52
2022-07-29T22:25:35.954Z,0.70
2022-07-29T22:30:36.397Z,0.85
2022-07-29T22:35:37.177Z,0.65
2022-07-29T22:38:08.111Z,0.80
2022-07-29T22:40:38.784Z,0.85
2022-07-29T22:45:38.984Z,0.47
2022-07-29T22:48:09.573Z,0.50
2022-07-29T22:50:40.388Z,0.43
2022-07-29T22:53:10.892Z,0.88
2022-07-29T22:55:41.518Z,0.80
2022-07-29T22:58:12.561Z,1.10
2022-07-29T23:00:43.497Z,0.80
2022-07-29T23:03:14.091Z,0.65
2022-07-29T23:08:14.635Z,0.50
2022-07-29T23:10:45.076Z,0.60
2022-07-29T23:13:16.311Z,0.70
2022-07-29T23:15:46.819Z,0.70
2022-07-29T23:18:17.353Z,0.55
2022-07-29T23:23:17.711Z,0.73
2022-07-29T23:25:48.338Z,0.77
2022-07-29T23:28:20.178Z,0.70
2022-07-29T23:30:50.837Z,0.93
2022-07-29T23:33:23.317Z,0.80
2022-07-29T23:36:02.901Z,1.10
2022-07-29T23:38:36.848Z,1.35
2022-07-29T23:41:10.254Z,0.70
2022-07-29T23:43:42.379Z,1.30
2022-07-29T23:46:13.082Z,1.00
2022-07-29T23:48:45.861Z,0.50
2022-07-29T23:53:53.670Z,1.15
2022-07-29T23:56:25.747Z,2.08
2022-07-29T23:58:56.147Z,1.35
